Time;durP1;ratioP1;P1;durP2;ratioP2;P2;SDS_P1;SDS_P2;PMS_P1;PMS_P2;Temp;Humidity;BMP_temperature;BMP_pressure;BME280_temperature;BME280_humidity;BME280_pressure;Samples;Min_cycle;Max_cycle;Signal;HPM_P1;HPM_P2
2024/02/26 00:00:23;;;;;;;8.43;7.53;;;;;;;;;;5074940;28;20220;-70
2024/02/26 00:02:50;;;;;;;7.60;6.85;;;;;;;;;;5074926;28;20235;-70
2024/02/26 00:05:19;;;;;;;7.53;6.72;;;;;;;;;;5074789;28;20614;-70
2024/02/26 00:07:46;;;;;;;8.93;6.32;;;;;;;;;;5074918;28;20593;-70
2024/02/26 00:10:14;;;;;;;7.40;6.60;;;;;;;;;;5074848;28;20196;-70
2024/02/26 00:12:41;;;;;;;9.93;7.53;;;;;;;;;;5074685;28;20556;-70
2024/02/26 00:15:08;;;;;;;9.65;7.97;;;;;;;;;;5074613;28;20288;-70
2024/02/26 00:17:35;;;;;;;8.48;7.78;;;;;;;;;;5074764;28;20192;-70
2024/02/26 00:20:04;;;;;;;9.45;6.80;;;;;;;;;;5074586;28;20217;-70
2024/02/26 00:22:32;;;;;;;8.48;7.78;;;;;;;;;;5074712;28;20197;-70
2024/02/26 00:24:59;;;;;;;8.02;7.07;;;;;;;;;;5074726;28;20612;-70
2024/02/26 00:27:26;;;;;;;9.50;8.40;;;;;;;;;;5074434;28;20280;-70
2024/02/26 00:29:53;;;;;;;8.80;8.00;;;;;;;;;;5074370;28;20197;-69
2024/02/26 00:32:20;;;;;;;7.30;6.60;;;;;;;;;;5074215;28;20284;-70
2024/02/26 00:34:47;;;;;;;9.82;6.50;;;;;;;;;;5073828;28;20236;-70
2024/02/26 00:37:14;;;;;;;8.20;7.30;;;;;;;;;;5074236;28;20185;-70
2024/02/26 00:39:42;;;;;;;7.13;6.45;;;;;;;;;;5073988;28;20324;-70
2024/02/26 00:42:09;;;;;;;10.43;6.45;;;;;;;;;;5074023;28;20215;-69
2024/02/26 00:44:36;;;;;;;6.90;6.30;;;;;;;;;;5074039;28;20189;-69
2024/02/26 00:47:03;;;;;;;7.80;7.03;;;;;;;;;;5073800;28;20197;-69
2024/02/26 00:49:30;;;;;;;9.68;7.80;;;;;;;;;;5074010;28;20284;-70
2024/02/26 00:51:57;;;;;;;7.15;6.45;;;;;;;;;;5074021;28;20622;-69
2024/02/26 00:54:24;;;;;;;7.63;6.93;;;;;;;;;;5073809;28;20747;-70
2024/02/26 00:56:52;;;;;;;9.23;6.85;;;;;;;;;;5073865;28;20196;-70
2024/02/26 00:59:19;;;;;;;7.82;6.90;;;;;;;;;;5073684;28;20217;-70
2024/02/26 01:01:46;;;;;;;6.70;6.20;;;;;;;;;;5073604;28;20189;-70
2024/02/26 01:04:13;;;;;;;7.68;6.40;;;;;;;;;;5073750;28;20185;-70
2024/02/26 01:06:40;;;;;;;7.60;6.72;;;;;;;;;;5073744;28;20276;-69
2024/02/26 01:09:08;;;;;;;9.18;7.57;;;;;;;;;;5073642;28;20223;-70
2024/02/26 01:11:34;;;;;;;9.70;7.85;;;;;;;;;;5073502;28;20603;-70
2024/02/26 01:14:03;;;;;;;6.60;6.00;;;;;;;;;;5073341;28;20227;-69
2024/02/26 01:16:31;;;;;;;6.50;6.00;;;;;;;;;;5073325;28;20189;-70
2024/02/26 01:18:58;;;;;;;7.03;6.43;;;;;;;;;;5073457;28;20189;-70
2024/02/26 01:21:26;;;;;;;9.00;6.53;;;;;;;;;;5073353;28;20263;-70
2024/02/26 01:23:53;;;;;;;7.10;6.40;;;;;;;;;;5073364;28;20247;-69
2024/02/26 01:26:21;;;;;;;8.68;6.25;;;;;;;;;;5073265;28;20284;-70
2024/02/26 01:28:48;;;;;;;17.52;7.45;;;;;;;;;;5073120;28;20189;-69
2024/02/26 01:31:17;;;;;;;7.68;6.97;;;;;;;;;;5073370;28;20199;-70
2024/02/26 01:33:43;;;;;;;6.72;6.13;;;;;;;;;;5073269;28;20191;-69
2024/02/26 01:36:10;;;;;;;7.28;6.43;;;;;;;;;;5073180;28;20191;-69
2024/02/26 01:38:37;;;;;;;6.85;6.25;;;;;;;;;;5072951;28;20280;-70
2024/02/26 01:41:04;;;;;;;6.32;5.70;;;;;;;;;;5073119;28;20646;-70
2024/02/26 01:43:31;;;;;;;6.88;6.20;;;;;;;;;;5072976;28;20268;-69
2024/02/26 01:45:58;;;;;;;7.70;6.63;;;;;;;;;;5072613;28;20192;-69
2024/02/26 01:48:27;;;;;;;6.95;6.35;;;;;;;;;;5073057;28;20220;-69
2024/02/26 01:50:54;;;;;;;7.68;6.72;;;;;;;;;;5073015;28;20605;-69
2024/02/26 01:53:21;;;;;;;6.72;6.07;;;;;;;;;;5072972;28;20276;-70
2024/02/26 01:55:48;;;;;;;7.38;6.70;;;;;;;;;;5072888;28;20720;-70
2024/02/26 01:58:15;;;;;;;6.82;6.07;;;;;;;;;;5073089;28;20197;-70
2024/02/26 02:00:42;;;;;;;12.00;6.43;;;;;;;;;;5072732;28;20680;-70
2024/02/26 02:03:09;;;;;;;5.78;5.38;;;;;;;;;;5073211;28;20276;-70
2024/02/26 02:05:41;;;;;;;7.55;6.78;;;;;;;;;;5072878;28;20283;-70
2024/02/26 02:08:08;;;;;;;6.28;5.68;;;;;;;;;;5072877;28;20193;-70
2024/02/26 02:10:36;;;;;;;6.50;5.90;;;;;;;;;;5072686;28;20184;-71
2024/02/26 02:13:02;;;;;;;6.30;5.70;;;;;;;;;;5072878;28;20613;-70
2024/02/26 02:15:29;;;;;;;6.85;5.53;;;;;;;;;;5072785;28;20276;-70
2024/02/26 02:17:56;;;;;;;6.53;5.60;;;;;;;;;;5072798;28;20195;-70
2024/02/26 02:20:28;;;;;;;5.95;5.30;;;;;;;;;;5072624;28;20304;-70
2024/02/26 02:22:55;;;;;;;7.15;5.75;;;;;;;;;;5072563;28;20200;-70
2024/02/26 02:25:22;;;;;;;6.65;6.05;;;;;;;;;;5072831;28;20191;-70
2024/02/26 02:27:48;;;;;;;6.38;5.22;;;;;;;;;;5072716;28;20548;-70
2024/02/26 02:30:16;;;;;;;8.60;5.20;;;;;;;;;;5072468;28;20663;-70
2024/02/26 02:32:43;;;;;;;5.57;5.03;;;;;;;;;;5072611;28;20211;-70
2024/02/26 02:35:10;;;;;;;5.80;5.28;;;;;;;;;;5072794;28;20281;-70
2024/02/26 02:37:38;;;;;;;6.78;6.05;;;;;;;;;;5072463;28;20197;-70
2024/02/26 02:40:06;;;;;;;5.82;5.20;;;;;;;;;;5072207;28;20307;-70
2024/02/26 02:42:33;;;;;;;4.97;4.68;;;;;;;;;;5072562;28;20189;-70
2024/02/26 02:44:59;;;;;;;5.90;5.35;;;;;;;;;;5072539;28;20296;-70
2024/02/26 02:47:26;;;;;;;5.95;5.35;;;;;;;;;;5072365;28;20190;-70
2024/02/26 02:49:53;;;;;;;6.13;5.20;;;;;;;;;;5072343;28;20220;-69
2024/02/26 02:52:20;;;;;;;5.32;4.82;;;;;;;;;;5072567;28;20652;-70
2024/02/26 02:54:49;;;;;;;6.57;5.13;;;;;;;;;;5072527;28;20196;-70
2024/02/26 02:57:16;;;;;;;6.20;5.05;;;;;;;;;;5074411;28;20216;-70
2024/02/26 02:59:42;;;;;;;5.20;4.80;;;;;;;;;;5076022;28;20280;-70
2024/02/26 03:02:09;;;;;;;5.38;4.88;;;;;;;;;;5075934;28;20665;-70
2024/02/26 03:04:36;;;;;;;5.40;4.65;;;;;;;;;;5075786;28;20195;-70
2024/02/26 03:07:03;;;;;;;7.75;4.43;;;;;;;;;;5076264;28;20185;-70
2024/02/26 03:09:30;;;;;;;4.75;4.35;;;;;;;;;;5075942;28;20280;-70
2024/02/26 03:11:58;;;;;;;6.47;5.63;;;;;;;;;;5076138;28;20193;-70
2024/02/26 03:14:26;;;;;;;5.05;4.55;;;;;;;;;;5075768;28;20276;-70
2024/02/26 03:16:55;;;;;;;5.32;4.78;;;;;;;;;;5075654;28;20289;-70
2024/02/26 03:19:22;;;;;;;7.18;4.30;;;;;;;;;;5075598;28;20221;-70
2024/02/26 03:21:49;;;;;;;4.78;4.32;;;;;;;;;;5075657;28;20217;-70
2024/02/26 03:24:16;;;;;;;5.18;3.70;;;;;;;;;;5075878;28;20228;-70
2024/02/26 03:26:43;;;;;;;4.18;3.80;;;;;;;;;;5075616;28;20281;-70
2024/02/26 03:29:12;;;;;;;4.22;3.92;;;;;;;;;;5075501;28;20204;-70
2024/02/26 03:31:39;;;;;;;6.22;4.70;;;;;;;;;;5075340;28;20193;-70
2024/02/26 03:34:05;;;;;;;3.88;3.58;;;;;;;;;;5075632;28;20279;-70
2024/02/26 03:36:31;;;;;;;4.75;4.35;;;;;;;;;;5075505;28;20323;-70
2024/02/26 03:38:58;;;;;;;4.83;4.50;;;;;;;;;;5075311;28;20646;-70
2024/02/26 03:41:26;;;;;;;4.35;3.95;;;;;;;;;;5075165;28;20460;-70
2024/02/26 03:43:53;;;;;;;4.50;4.20;;;;;;;;;;5075256;28;20194;-70
2024/02/26 03:46:21;;;;;;;4.90;4.50;;;;;;;;;;5075126;28;20227;-70
2024/02/26 03:48:48;;;;;;;5.35;4.03;;;;;;;;;;5075309;28;20546;-70
2024/02/26 03:51:15;;;;;;;4.65;4.32;;;;;;;;;;5075181;28;20614;-69
2024/02/26 03:53:42;;;;;;;6.22;4.30;;;;;;;;;;5075061;28;20192;-70
2024/02/26 03:56:09;;;;;;;5.30;4.70;;;;;;;;;;5075103;28;20197;-70
2024/02/26 03:58:36;;;;;;;7.18;4.50;;;;;;;;;;5074937;28;20196;-70
2024/02/26 04:01:03;;;;;;;4.10;3.70;;;;;;;;;;5074717;28;20655;-70
2024/02/26 04:03:31;;;;;;;4.72;4.10;;;;;;;;;;5075008;28;20280;-70
2024/02/26 04:05:58;;;;;;;4.60;4.20;;;;;;;;;;5074992;28;20200;-70
2024/02/26 04:08:25;;;;;;;4.60;4.20;;;;;;;;;;5074151;28;20186;-70
2024/02/26 04:10:52;;;;;;;6.15;4.60;;;;;;;;;;5074698;28;20636;-70
2024/02/26 04:13:19;;;;;;;5.55;4.53;;;;;;;;;;5074553;28;20189;-69
2024/02/26 04:15:47;;;;;;;4.30;3.90;;;;;;;;;;5074773;28;20518;-69
2024/02/26 04:18:14;;;;;;;8.85;4.47;;;;;;;;;;5074591;28;20208;-70
2024/02/26 04:20:42;;;;;;;6.88;5.25;;;;;;;;;;5074518;28;20213;-69
2024/02/26 04:23:09;;;;;;;4.70;4.30;;;;;;;;;;5074490;28;20190;-70
2024/02/26 04:25:36;;;;;;;4.82;4.43;;;;;;;;;;5074343;28;20272;-70
2024/02/26 04:28:03;;;;;;;5.28;4.72;;;;;;;;;;5074231;28;20276;-69
2024/02/26 04:30:30;;;;;;;10.43;5.75;;;;;;;;;;5074525;28;20549;-70
2024/02/26 04:32:57;;;;;;;5.60;4.57;;;;;;;;;;5074277;28;20280;-69
2024/02/26 04:35:24;;;;;;;4.63;4.25;;;;;;;;;;5074312;28;20590;-70
2024/02/26 04:37:52;;;;;;;4.38;4.03;;;;;;;;;;5074180;28;20192;-70
2024/02/26 04:40:19;;;;;;;5.95;4.80;;;;;;;;;;5074052;28;20308;-69
2024/02/26 04:42:46;;;;;;;5.47;4.60;;;;;;;;;;5073965;28;20228;-70
2024/02/26 04:45:13;;;;;;;4.70;4.25;;;;;;;;;;5074098;28;20304;-69
2024/02/26 04:47:40;;;;;;;4.75;4.35;;;;;;;;;;5074125;28;20276;-69
2024/02/26 04:50:07;;;;;;;5.30;4.80;;;;;;;;;;5073939;28;20243;-70
2024/02/26 04:52:34;;;;;;;4.03;3.58;;;;;;;;;;5073834;28;20185;-70
2024/02/26 04:55:03;;;;;;;5.78;4.05;;;;;;;;;;5073906;28;20192;-69
2024/02/26 04:57:30;;;;;;;5.07;4.35;;;;;;;;;;5073962;28;20192;-70
2024/02/26 04:59:57;;;;;;;5.85;5.22;;;;;;;;;;5073830;28;20195;-69
2024/02/26 05:02:24;;;;;;;8.73;5.90;;;;;;;;;;5073644;28;20767;-70
2024/02/26 05:04:51;;;;;;;5.38;4.88;;;;;;;;;;5073686;28;20189;-70
2024/02/26 05:07:18;;;;;;;6.13;5.13;;;;;;;;;;5073584;28;20296;-70
2024/02/26 05:09:46;;;;;;;8.02;5.03;;;;;;;;;;5073468;28;20189;-69
2024/02/26 05:12:14;;;;;;;8.75;5.75;;;;;;;;;;5073723;28;20189;-70
2024/02/26 05:14:42;;;;;;;5.90;5.20;;;;;;;;;;5073540;28;20280;-69
2024/02/26 05:17:09;;;;;;;5.90;5.32;;;;;;;;;;5073462;28;20189;-70
2024/02/26 05:19:36;;;;;;;6.45;4.97;;;;;;;;;;5072920;28;20297;-70
2024/02/26 05:22:03;;;;;;;8.95;6.93;;;;;;;;;;5072935;28;20221;-70
2024/02/26 05:24:30;;;;;;;10.40;6.25;;;;;;;;;;5073472;28;20189;-69
2024/02/26 05:26:57;;;;;;;5.82;5.32;;;;;;;;;;5073345;28;20185;-70
2024/02/26 05:29:25;;;;;;;7.05;5.93;;;;;;;;;;5073318;28;20199;-70
2024/02/26 05:31:54;;;;;;;6.60;5.30;;;;;;;;;;5073230;28;20193;-70
2024/02/26 05:34:21;;;;;;;9.40;5.65;;;;;;;;;;5073096;28;20196;-70
2024/02/26 05:36:48;;;;;;;6.53;5.70;;;;;;;;;;5072994;28;20185;-70
2024/02/26 05:39:16;;;;;;;10.15;6.03;;;;;;;;;;5073212;28;20280;-70
2024/02/26 05:41:43;;;;;;;7.97;7.13;;;;;;;;;;5073070;28;20573;-69
2024/02/26 05:44:10;;;;;;;10.10;6.55;;;;;;;;;;5073126;28;20193;-69
2024/02/26 05:46:38;;;;;;;5.88;5.38;;;;;;;;;;5072722;28;20189;-69
2024/02/26 05:49:07;;;;;;;5.78;5.03;;;;;;;;;;5072877;28;20276;-69
2024/02/26 05:51:33;;;;;;;5.25;4.80;;;;;;;;;;5072850;28;20276;-69
2024/02/26 05:54:01;;;;;;;6.30;4.90;;;;;;;;;;5073040;28;20193;-69
2024/02/26 05:56:28;;;;;;;4.40;4.00;;;;;;;;;;5072975;28;20240;-69
2024/02/26 05:58:54;;;;;;;6.00;5.40;;;;;;;;;;5072871;28;20195;-69
2024/02/26 06:01:22;;;;;;;8.77;6.50;;;;;;;;;;5072732;28;20209;-69
2024/02/26 06:03:50;;;;;;;5.78;5.28;;;;;;;;;;5072584;28;20272;-69
2024/02/26 06:06:17;;;;;;;6.57;4.70;;;;;;;;;;5072885;28;20192;-69
2024/02/26 06:08:44;;;;;;;6.70;5.97;;;;;;;;;;5072685;28;20663;-69
2024/02/26 06:11:11;;;;;;;6.40;5.80;;;;;;;;;;5072998;28;20309;-69
2024/02/26 06:13:38;;;;;;;11.02;6.00;;;;;;;;;;5072653;28;20277;-70
2024/02/26 06:16:05;;;;;;;7.32;6.72;;;;;;;;;;5072631;28;20276;-69
2024/02/26 06:18:32;;;;;;;6.70;5.90;;;;;;;;;;5072552;28;20276;-70
2024/02/26 06:21:01;;;;;;;9.52;6.70;;;;;;;;;;5072753;28;20224;-69
2024/02/26 06:23:28;;;;;;;9.82;6.43;;;;;;;;;;5072684;28;20235;-70
2024/02/26 06:25:55;;;;;;;9.45;6.90;;;;;;;;;;5072667;28;20276;-69
2024/02/26 06:28:22;;;;;;;8.23;7.10;;;;;;;;;;5072654;28;20622;-70
2024/02/26 06:30:50;;;;;;;13.02;8.38;;;;;;;;;;5072336;28;20195;-70
2024/02/26 06:33:17;;;;;;;10.35;8.40;;;;;;;;;;5076436;28;20876;-70
2024/02/26 06:35:44;;;;;;;8.50;7.70;;;;;;;;;;5076565;28;20189;-69
2024/02/26 06:38:13;;;;;;;8.60;7.80;;;;;;;;;;5076485;28;20331;-69
2024/02/26 06:40:40;;;;;;;7.75;6.78;;;;;;;;;;5076028;28;20233;-69
2024/02/26 06:43:07;;;;;;;10.88;7.20;;;;;;;;;;5076526;28;20280;-70
2024/02/26 06:45:34;;;;;;;12.00;7.90;;;;;;;;;;5076113;28;20278;-69
2024/02/26 06:48:02;;;;;;;10.57;6.85;;;;;;;;;;5076394;28;20215;-70
2024/02/26 06:50:29;;;;;;;10.10;7.28;;;;;;;;;;5076341;28;20235;-70
2024/02/26 06:52:56;;;;;;;13.38;6.95;;;;;;;;;;5076083;28;20284;-70
2024/02/26 06:55:24;;;;;;;7.68;6.93;;;;;;;;;;5075942;28;20272;-70
2024/02/26 06:57:51;;;;;;;9.38;7.80;;;;;;;;;;5075814;28;20284;-69
2024/02/26 07:00:18;;;;;;;8.38;7.50;;;;;;;;;;5076036;28;20220;-70
2024/02/26 07:02:45;;;;;;;8.70;7.90;;;;;;;;;;5075895;28;20256;-70
2024/02/26 07:05:12;;;;;;;11.38;7.28;;;;;;;;;;5075804;28;20275;-70
2024/02/26 07:07:40;;;;;;;15.32;8.60;;;;;;;;;;5075895;28;20196;-70
2024/02/26 07:10:07;;;;;;;10.95;7.88;;;;;;;;;;5075835;28;20549;-70
2024/02/26 07:12:35;;;;;;;10.50;8.05;;;;;;;;;;5075677;28;20207;-69
2024/02/26 07:15:02;;;;;;;13.43;9.20;;;;;;;;;;5075856;28;20194;-70
2024/02/26 07:17:29;;;;;;;10.65;9.20;;;;;;;;;;5075707;28;20190;-70
2024/02/26 07:19:56;;;;;;;16.05;11.95;;;;;;;;;;5075723;28;20556;-70
2024/02/26 07:22:24;;;;;;;13.02;11.48;;;;;;;;;;5075596;28;20545;-70
2024/02/26 07:24:51;;;;;;;11.53;10.33;;;;;;;;;;5075534;28;20193;-70
2024/02/26 07:27:18;;;;;;;11.75;10.23;;;;;;;;;;5075362;28;20946;-70
2024/02/26 07:29:46;;;;;;;11.07;9.90;;;;;;;;;;5075352;28;20417;-70
2024/02/26 07:32:13;;;;;;;14.17;10.20;;;;;;;;;;5075584;28;20189;-70
2024/02/26 07:34:41;;;;;;;12.13;10.83;;;;;;;;;;5075381;28;20450;-70
2024/02/26 07:37:08;;;;;;;11.90;10.70;;;;;;;;;;5075292;28;20481;-70
2024/02/26 07:39:35;;;;;;;14.13;12.27;;;;;;;;;;5075145;28;20312;-70
2024/02/26 07:42:02;;;;;;;13.50;11.00;;;;;;;;;;5075351;28;20224;-70
2024/02/26 07:44:30;;;;;;;15.60;12.75;;;;;;;;;;5074024;28;20197;-70
2024/02/26 07:46:58;;;;;;;15.07;10.98;;;;;;;;;;5075106;28;20280;-69
2024/02/26 07:49:25;;;;;;;12.37;11.10;;;;;;;;;;5075038;28;20479;-70
2024/02/26 07:51:52;;;;;;;16.58;12.32;;;;;;;;;;5074919;28;20530;-71
2024/02/26 07:54:19;;;;;;;12.57;11.30;;;;;;;;;;5075355;28;20283;-71
2024/02/26 07:56:46;;;;;;;15.20;12.30;;;;;;;;;;5075040;28;20277;-70
2024/02/26 07:59:13;;;;;;;17.10;12.75;;;;;;;;;;5074872;28;20189;-70
2024/02/26 08:01:41;;;;;;;14.13;12.65;;;;;;;;;;5074743;28;20305;-70
2024/02/26 08:04:09;;;;;;;15.50;13.30;;;;;;;;;;5075025;28;20189;-69
2024/02/26 08:06:36;;;;;;;16.08;14.35;;;;;;;;;;5074067;28;20471;-70
2024/02/26 08:09:04;;;;;;;16.67;14.30;;;;;;;;;;5074096;28;20209;-70
2024/02/26 08:11:31;;;;;;;14.95;13.45;;;;;;;;;;5074347;28;20203;-70
2024/02/26 08:13:58;;;;;;;17.92;13.85;;;;;;;;;;5074143;28;20212;-70
2024/02/26 08:16:25;;;;;;;18.67;13.57;;;;;;;;;;5074174;28;20266;-69
2024/02/26 08:18:52;;;;;;;18.60;14.75;;;;;;;;;;5074175;28;20189;-69
2024/02/26 08:21:21;;;;;;;18.63;13.65;;;;;;;;;;5073721;28;20556;-69
2024/02/26 08:23:48;;;;;;;21.83;15.50;;;;;;;;;;5074178;28;20264;-69
2024/02/26 08:26:15;;;;;;;18.23;15.10;;;;;;;;;;5074095;28;20185;-69
2024/02/26 08:28:42;;;;;;;18.63;13.97;;;;;;;;;;5071253;28;20664;-69
2024/02/26 08:31:09;;;;;;;15.80;14.10;;;;;;;;;;5080786;28;20450;-70
2024/02/26 08:33:36;;;;;;;18.50;14.77;;;;;;;;;;5082710;28;20962;-69
2024/02/26 08:36:05;;;;;;;21.50;16.53;;;;;;;;;;5082160;28;20446;-69
2024/02/26 08:38:35;;;;;;;18.70;15.70;;;;;;;;;;5081528;28;20443;-69
2024/02/26 08:41:02;;;;;;;18.10;14.93;;;;;;;;;;5078918;28;20494;-69
2024/02/26 08:43:29;;;;;;;18.20;14.97;;;;;;;;;;5083205;28;20478;-69
2024/02/26 08:45:56;;;;;;;18.20;14.30;;;;;;;;;;5082501;28;20446;-69
2024/02/26 08:48:23;;;;;;;24.13;16.20;;;;;;;;;;5081794;28;20526;-69
2024/02/26 08:50:50;;;;;;;22.30;16.07;;;;;;;;;;5083285;28;20537;-70
2024/02/26 08:53:17;;;;;;;17.85;15.07;;;;;;;;;;5083728;28;20449;-69
2024/02/26 08:55:45;;;;;;;18.17;15.45;;;;;;;;;;5081327;28;20189;-69
2024/02/26 08:58:12;;;;;;;23.73;16.07;;;;;;;;;;5083269;28;20212;-69
2024/02/26 09:00:39;;;;;;;19.73;15.13;;;;;;;;;;5081192;28;20445;-70
2024/02/26 09:03:06;;;;;;;17.58;15.70;;;;;;;;;;5074969;28;20466;-69
2024/02/26 09:05:33;;;;;;;17.03;13.80;;;;;;;;;;5075390;28;20177;-68
2024/02/26 09:08:00;;;;;;;16.80;15.10;;;;;;;;;;5089287;28;20885;-68
2024/02/26 09:10:27;;;;;;;19.27;14.80;;;;;;;;;;5088754;28;20530;-69
2024/02/26 09:12:56;;;;;;;17.60;15.27;;;;;;;;;;5083965;28;20471;-69
2024/02/26 09:15:22;;;;;;;17.42;15.00;;;;;;;;;;5093615;28;20450;-69
2024/02/26 09:17:51;;;;;;;16.93;14.23;;;;;;;;;;5078452;28;20197;-69
2024/02/26 09:20:19;;;;;;;18.30;14.50;;;;;;;;;;5075746;28;20888;-68
2024/02/26 09:22:46;;;;;;;18.80;16.20;;;;;;;;;;5083697;28;20486;-70
2024/02/26 09:25:15;;;;;;;18.57;15.57;;;;;;;;;;5081144;28;20475;-70
2024/02/26 09:27:43;;;;;;;19.23;15.10;;;;;;;;;;5093459;28;20442;-69
2024/02/26 09:30:12;;;;;;;18.87;15.30;;;;;;;;;;5089077;28;20448;-69
2024/02/26 09:32:39;;;;;;;21.87;16.27;;;;;;;;;;5073385;28;20530;-67
2024/02/26 09:35:06;;;;;;;14.23;12.77;;;;;;;;;;5082123;28;20524;-68
2024/02/26 09:37:33;;;;;;;17.13;14.03;;;;;;;;;;5080682;28;20439;-68
2024/02/26 09:40:00;;;;;;;25.57;13.80;;;;;;;;;;5076926;28;20586;-69
2024/02/26 09:42:28;;;;;;;19.23;14.37;;;;;;;;;;5072381;28;20464;-66
2024/02/26 09:44:55;;;;;;;19.47;14.77;;;;;;;;;;5072546;28;20436;-67
2024/02/26 09:47:24;;;;;;;17.43;13.60;;;;;;;;;;5072521;28;20444;-67
2024/02/26 09:49:53;;;;;;;16.73;13.97;;;;;;;;;;5071476;28;20505;-67
2024/02/26 09:52:21;;;;;;;15.73;14.07;;;;;;;;;;5079863;28;20438;-67
2024/02/26 09:54:49;;;;;;;19.47;14.70;;;;;;;;;;5081144;28;20537;-67
2024/02/26 09:57:16;;;;;;;16.77;13.07;;;;;;;;;;5081151;28;20440;-68
2024/02/26 09:59:44;;;;;;;15.63;13.77;;;;;;;;;;5080079;28;20505;-68
2024/02/26 10:02:13;;;;;;;19.47;15.80;;;;;;;;;;5082122;28;20467;-68
2024/02/26 10:04:41;;;;;;;15.93;12.77;;;;;;;;;;5081790;28;20439;-67
2024/02/26 10:07:11;;;;;;;13.10;11.80;;;;;;;;;;5081144;28;20446;-67
2024/02/26 10:09:38;;;;;;;14.90;12.73;;;;;;;;;;5077980;28;20438;-67
2024/02/26 10:12:05;;;;;;;13.53;11.27;;;;;;;;;;5082499;28;20438;-67
2024/02/26 10:14:32;;;;;;;16.57;12.43;;;;;;;;;;5081791;28;20539;-67
2024/02/26 10:17:01;;;;;;;14.80;11.30;;;;;;;;;;5075212;28;20439;-67
2024/02/26 10:19:29;;;;;;;13.97;10.23;;;;;;;;;;5069853;28;20807;-67
2024/02/26 10:21:59;;;;;;;11.87;10.67;;;;;;;;;;5072041;28;20531;-67
2024/02/26 10:24:26;;;;;;;10.77;9.67;;;;;;;;;;5069519;28;20497;-68
2024/02/26 10:26:53;;;;;;;13.47;9.83;;;;;;;;;;5072050;28;20443;-67
2024/02/26 10:29:21;;;;;;;13.00;11.40;;;;;;;;;;5072085;28;20474;-67
2024/02/26 10:31:48;;;;;;;14.10;9.60;;;;;;;;;;5072086;28;20432;-67
2024/02/26 10:34:16;;;;;;;10.70;9.00;;;;;;;;;;5071960;28;20526;-67
2024/02/26 10:36:43;;;;;;;10.23;8.43;;;;;;;;;;5071825;28;20446;-67
2024/02/26 10:39:13;;;;;;;11.83;9.53;;;;;;;;;;5071878;28;20521;-67
2024/02/26 10:41:41;;;;;;;8.90;8.00;;;;;;;;;;5072034;28;20443;-67
2024/02/26 10:44:12;;;;;;;8.80;8.00;;;;;;;;;;5071799;28;20934;-67
2024/02/26 10:46:39;;;;;;;10.60;8.67;;;;;;;;;;5072048;28;20439;-67
2024/02/26 10:49:08;;;;;;;7.57;6.83;;;;;;;;;;5069472;28;20443;-67
2024/02/26 10:51:37;;;;;;;9.70;8.17;;;;;;;;;;5072163;28;20440;-68
2024/02/26 10:54:07;;;;;;;7.40;6.70;;;;;;;;;;5069313;28;20444;-67
2024/02/26 10:56:37;;;;;;;8.80;7.90;;;;;;;;;;5071970;28;20439;-68
2024/02/26 10:59:05;;;;;;;9.80;7.13;;;;;;;;;;5069134;28;20489;-68
2024/02/26 11:01:32;;;;;;;10.93;6.80;;;;;;;;;;5071821;28;20803;-67
2024/02/26 11:04:01;;;;;;;7.20;6.60;;;;;;;;;;5071656;28;21251;-68
2024/02/26 11:06:29;;;;;;;11.57;7.77;;;;;;;;;;5069700;28;20451;-68
2024/02/26 11:08:56;;;;;;;8.37;6.43;;;;;;;;;;5071830;28;20535;-68
2024/02/26 11:11:23;;;;;;;6.90;6.30;;;;;;;;;;5071784;28;20489;-68
2024/02/26 11:13:52;;;;;;;6.97;6.27;;;;;;;;;;5071634;28;20534;-68
2024/02/26 11:16:20;;;;;;;9.13;6.10;;;;;;;;;;5071466;28;20450;-68
2024/02/26 11:18:49;;;;;;;8.07;7.20;;;;;;;;;;5070342;28;20439;-67
2024/02/26 11:21:17;;;;;;;11.30;6.87;;;;;;;;;;5075379;28;20436;-67
2024/02/26 11:23:44;;;;;;;6.53;5.90;;;;;;;;;;5075558;28;20485;-68
2024/02/26 11:26:11;;;;;;;8.00;6.87;;;;;;;;;;5075454;28;20872;-68
2024/02/26 11:28:39;;;;;;;9.10;7.07;;;;;;;;;;5075302;28;20451;-68
2024/02/26 11:31:07;;;;;;;8.90;8.00;;;;;;;;;;5075031;28;20935;-68
2024/02/26 11:33:36;;;;;;;8.60;7.73;;;;;;;;;;5075034;28;20444;-67
2024/02/26 11:36:03;;;;;;;7.27;6.57;;;;;;;;;;5074830;28;20978;-68
2024/02/26 11:38:30;;;;;;;9.47;8.57;;;;;;;;;;5074648;28;20439;-68
2024/02/26 11:40:57;;;;;;;8.77;7.87;;;;;;;;;;5072217;28;20535;-68
2024/02/26 11:43:25;;;;;;;11.03;8.53;;;;;;;;;;5074776;28;20477;-68
2024/02/26 11:45:59;;;;;;;10.27;9.27;;;;;;;;;;5074873;28;20447;-69
2024/02/26 11:48:29;;;;;;;8.63;7.83;;;;;;;;;;5074793;28;20471;-68
2024/02/26 11:50:57;;;;;;;8.20;7.40;;;;;;;;;;5074654;28;20475;-68
2024/02/26 11:53:25;;;;;;;8.90;8.10;;;;;;;;;;5074653;28;20443;-68
2024/02/26 11:56:11;;;;;;;9.10;8.20;;;;;;;;;;5074530;28;20448;-68
2024/02/26 11:58:40;;;;;;;8.10;7.43;;;;;;;;;;5071999;28;20854;-68
2024/02/26 12:01:07;;;;;;;10.67;8.00;;;;;;;;;;5074515;28;20543;-68
2024/02/26 12:03:35;;;;;;;9.00;7.70;;;;;;;;;;5074190;28;20985;-68
2024/02/26 12:06:02;;;;;;;9.50;8.60;;;;;;;;;;5074356;28;20446;-68
2024/02/26 12:08:30;;;;;;;9.30;7.47;;;;;;;;;;5074168;28;20535;-68
2024/02/26 12:10:57;;;;;;;11.07;9.67;;;;;;;;;;5074119;28;21029;-68
2024/02/26 12:13:31;;;;;;;11.23;8.60;;;;;;;;;;5074356;28;20501;-68
2024/02/26 12:15:59;;;;;;;10.93;9.67;;;;;;;;;;5071593;28;20439;-68
2024/02/26 12:18:25;;;;;;;9.63;8.73;;;;;;;;;;5074012;28;20439;-69
2024/02/26 12:21:01;;;;;;;10.37;8.37;;;;;;;;;;5073830;28;20474;-68
2024/02/26 12:23:29;;;;;;;10.87;9.77;;;;;;;;;;5074209;28;20508;-68
2024/02/26 12:25:55;;;;;;;9.93;8.93;;;;;;;;;;5073783;28;20938;-68
2024/02/26 12:28:22;;;;;;;10.70;9.03;;;;;;;;;;5073971;28;20535;-67
2024/02/26 12:30:49;;;;;;;11.03;9.10;;;;;;;;;;5073376;28;20444;-69
2024/02/26 12:33:16;;;;;;;10.37;8.97;;;;;;;;;;5073660;28;20550;-70
2024/02/26 12:35:44;;;;;;;10.00;8.87;;;;;;;;;;5073547;28;20454;-70
2024/02/26 12:38:12;;;;;;;12.30;9.93;;;;;;;;;;5073694;28;20440;-70
2024/02/26 12:40:39;;;;;;;12.10;9.63;;;;;;;;;;5070880;28;20574;-69
2024/02/26 12:43:06;;;;;;;10.47;9.17;;;;;;;;;;5073466;28;20471;-69
2024/02/26 12:45:33;;;;;;;10.97;9.13;;;;;;;;;;5073534;28;20867;-70
2024/02/26 12:48:00;;;;;;;11.57;10.33;;;;;;;;;;5073359;28;20837;-70
2024/02/26 12:50:27;;;;;;;14.60;12.13;;;;;;;;;;5073550;28;20493;-70
2024/02/26 12:52:54;;;;;;;12.70;11.00;;;;;;;;;;5073483;28;20436;-70
2024/02/26 12:55:23;;;;;;;13.33;12.00;;;;;;;;;;5073498;28;20530;-70
2024/02/26 12:57:50;;;;;;;12.67;11.37;;;;;;;;;;5073390;28;20455;-70
2024/02/26 13:00:18;;;;;;;13.57;10.90;;;;;;;;;;5073573;28;20435;-69
2024/02/26 13:02:46;;;;;;;13.47;11.87;;;;;;;;;;5072974;28;20751;-69
2024/02/26 13:05:14;;;;;;;12.80;11.50;;;;;;;;;;5073030;28;20452;-70
2024/02/26 13:07:46;;;;;;;14.40;12.20;;;;;;;;;;5072875;28;20527;-70
2024/02/26 13:10:13;;;;;;;15.27;12.90;;;;;;;;;;5072865;28;20444;-70
2024/02/26 13:12:45;;;;;;;12.97;11.57;;;;;;;;;;5072873;28;20902;-70
2024/02/26 13:15:16;;;;;;;14.23;12.70;;;;;;;;;;5072835;28;20454;-69
2024/02/26 13:17:43;;;;;;;15.03;11.90;;;;;;;;;;5070899;28;20777;-70
2024/02/26 13:20:10;;;;;;;14.60;12.90;;;;;;;;;;5073379;28;20526;-70
2024/02/26 13:22:37;;;;;;;14.97;12.80;;;;;;;;;;5073251;28;20534;-69
2024/02/26 13:25:07;;;;;;;15.80;12.33;;;;;;;;;;5073080;28;20566;-70
2024/02/26 13:27:34;;;;;;;15.73;13.00;;;;;;;;;;5073109;28;20810;-70
2024/02/26 13:30:07;;;;;;;15.30;12.83;;;;;;;;;;5073319;28;20572;-69
2024/02/26 13:32:35;;;;;;;15.63;13.47;;;;;;;;;;5073278;28;20459;-70
2024/02/26 13:35:09;;;;;;;18.23;12.20;;;;;;;;;;5073332;28;20808;-70
2024/02/26 13:37:36;;;;;;;14.77;12.77;;;;;;;;;;5072980;28;20452;-70
2024/02/26 13:40:06;;;;;;;15.27;13.67;;;;;;;;;;5072657;28;20471;-69
2024/02/26 13:42:33;;;;;;;16.13;14.40;;;;;;;;;;5072361;28;20448;-69
2024/02/26 13:45:00;;;;;;;16.57;14.70;;;;;;;;;;5072787;28;20490;-69
2024/02/26 13:47:29;;;;;;;15.87;14.30;;;;;;;;;;5072994;28;20447;-69
2024/02/26 13:49:56;;;;;;;15.07;12.97;;;;;;;;;;5072849;28;20534;-70
2024/02/26 13:52:23;;;;;;;15.33;13.83;;;;;;;;;;5072694;28;20448;-70
2024/02/26 13:54:51;;;;;;;16.93;14.80;;;;;;;;;;5072743;28;20516;-70
2024/02/26 13:57:18;;;;;;;18.50;14.60;;;;;;;;;;5072930;28;20447;-70
2024/02/26 13:59:45;;;;;;;18.33;14.17;;;;;;;;;;5072947;28;20839;-71
2024/02/26 14:02:12;;;;;;;15.80;14.17;;;;;;;;;;5072798;28;20448;-70
2024/02/26 14:04:40;;;;;;;17.50;14.10;;;;;;;;;;5072679;28;21008;-70
2024/02/26 14:07:07;;;;;;;18.07;14.73;;;;;;;;;;5072731;28;20525;-69
2024/02/26 14:09:34;;;;;;;18.47;14.67;;;;;;;;;;5072610;28;20931;-69
2024/02/26 14:12:01;;;;;;;17.30;14.80;;;;;;;;;;5072545;28;20931;-70
2024/02/26 14:14:29;;;;;;;17.80;14.83;;;;;;;;;;5072795;28;20573;-70
2024/02/26 14:16:56;;;;;;;19.53;15.20;;;;;;;;;;5072551;28;20889;-71
2024/02/26 14:19:23;;;;;;;16.73;14.87;;;;;;;;;;5072527;28;20538;-69
2024/02/26 14:21:51;;;;;;;16.63;13.00;;;;;;;;;;5072359;28;20447;-70
2024/02/26 14:24:18;;;;;;;16.57;14.77;;;;;;;;;;5072440;28;20509;-70
2024/02/26 14:26:45;;;;;;;15.87;14.17;;;;;;;;;;5072392;28;20569;-69
2024/02/26 14:29:12;;;;;;;18.87;13.50;;;;;;;;;;5072467;28;20450;-70
2024/02/26 14:31:39;;;;;;;15.80;14.17;;;;;;;;;;5072480;28;20530;-70
2024/02/26 14:34:07;;;;;;;17.40;14.90;;;;;;;;;;5072373;28;20603;-69